createdAt,value
2019-05-05T00:02:06.046Z,2.97
2019-05-05T00:04:54.487Z,2.37
2019-05-05T00:07:27.325Z,2.90
2019-05-05T00:09:56.370Z,2.30
2019-05-05T00:12:44.920Z,2.67
2019-05-05T00:15:34.500Z,2.80
2019-05-05T00:18:05.431Z,2.50
2019-05-05T00:20:35.008Z,2.10
2019-05-05T00:23:05.309Z,2.17
2019-05-05T00:25:34.802Z,2.80
2019-05-05T00:28:05.051Z,2.43
2019-05-05T00:30:34.539Z,2.30
2019-05-05T00:33:05.591Z,2.30
2019-05-05T00:35:34.575Z,1.77
2019-05-05T00:38:05.035Z,1.90
2019-05-05T00:40:35.271Z,2.00
2019-05-05T00:43:05.336Z,2.20
2019-05-05T00:45:35.618Z,1.93
2019-05-05T00:48:24.493Z,1.83
2019-05-05T00:50:55.480Z,2.33
2019-05-05T00:53:25.031Z,2.10
2019-05-05T00:55:54.764Z,2.27
2019-05-05T00:58:24.734Z,1.93
2019-05-05T01:01:08.999Z,2.03
2019-05-05T01:03:38.161Z,1.77
2019-05-05T01:06:15.853Z,2.10
2019-05-05T01:08:45.147Z,1.87
2019-05-05T01:11:15.308Z,2.10
2019-05-05T01:13:45.499Z,1.87
2019-05-05T01:16:15.249Z,2.00
2019-05-05T01:18:45.044Z,1.93
2019-05-05T01:21:15.038Z,2.20
2019-05-05T01:23:45.538Z,2.07
2019-05-05T01:26:15.213Z,2.23
2019-05-05T01:28:44.765Z,2.00
2019-05-05T01:31:16.803Z,1.93
2019-05-05T01:34:00.831Z,2.07
2019-05-05T01:36:29.924Z,1.90
2019-05-05T01:39:37.492Z,2.20
2019-05-05T01:42:14.330Z,1.87
2019-05-05T01:44:44.765Z,1.80
2019-05-05T01:47:14.826Z,1.93
2019-05-05T01:49:45.263Z,1.73
2019-05-05T01:52:15.037Z,1.83
2019-05-05T01:54:44.718Z,1.60
2019-05-05T01:57:14.803Z,1.90
2019-05-05T01:59:44.752Z,2.20
2019-05-05T02:02:14.577Z,1.97
2019-05-05T02:04:44.734Z,2.00
2019-05-05T02:07:14.676Z,1.60
2019-05-05T02:09:44.789Z,1.37
2019-05-05T02:12:15.872Z,1.30
2019-05-05T02:14:44.990Z,1.50
2019-05-05T02:17:14.502Z,1.57
2019-05-05T02:19:44.457Z,1.67
2019-05-05T02:22:14.637Z,1.70
2019-05-05T02:24:44.527Z,1.77
2019-05-05T02:27:14.703Z,1.40
2019-05-05T02:29:56.585Z,1.73
2019-05-05T02:32:45.457Z,1.90
2019-05-05T02:35:16.640Z,1.27
2019-05-05T02:37:46.165Z,1.63
2019-05-05T02:40:16.096Z,1.40
2019-05-05T02:42:45.762Z,1.60
2019-05-05T02:45:29.442Z,1.40
2019-05-05T02:48:26.813Z,1.30
2019-05-05T02:51:01.721Z,1.33
2019-05-05T02:53:40.819Z,1.60
2019-05-05T02:56:14.773Z,1.60
2019-05-05T02:58:44.389Z,1.50
2019-05-05T03:01:38.711Z,1.23
2019-05-05T03:04:07.837Z,1.60
2019-05-05T03:06:37.440Z,1.63
2019-05-05T03:09:06.886Z,1.63
2019-05-05T03:11:36.078Z,1.50
2019-05-05T03:14:06.305Z,1.50
2019-05-05T03:16:37.227Z,1.27
2019-05-05T03:19:07.044Z,1.60
2019-05-05T03:21:36.196Z,1.33
2019-05-05T03:24:05.623Z,1.20
2019-05-05T03:26:34.796Z,1.40
2019-05-05T03:29:06.177Z,1.33
2019-05-05T03:31:35.504Z,1.63
2019-05-05T03:34:06.036Z,1.63
2019-05-05T03:36:35.585Z,1.30
2019-05-05T03:39:06.401Z,1.23
2019-05-05T03:41:40.875Z,1.30
2019-05-05T03:44:28.641Z,1.57
2019-05-05T03:46:57.809Z,1.30
2019-05-05T03:49:27.177Z,1.30
2019-05-05T03:51:56.334Z,1.63
2019-05-05T03:54:25.452Z,1.23
2019-05-05T03:57:09.684Z,1.30
2019-05-05T03:59:40.348Z,1.20
2019-05-05T04:02:23.415Z,1.17
2019-05-05T04:04:54.822Z,1.17
2019-05-05T04:07:24.241Z,1.50
2019-05-05T04:09:54.260Z,1.10
2019-05-05T04:12:24.170Z,1.47
2019-05-05T04:14:54.633Z,1.27
2019-05-05T04:17:48.722Z,1.43
2019-05-05T04:20:33.752Z,1.10
2019-05-05T04:23:03.771Z,1.30
2019-05-05T04:25:34.789Z,1.10
2019-05-05T04:28:04.444Z,1.30
2019-05-05T04:30:33.995Z,1.20
2019-05-05T04:33:04.722Z,1.40
2019-05-05T04:35:34.160Z,1.60
2019-05-05T04:38:04.753Z,1.00
2019-05-05T04:40:34.590Z,1.00
2019-05-05T04:43:04.078Z,1.10
2019-05-05T04:45:34.752Z,1.20
2019-05-05T04:48:10.035Z,1.00
2019-05-05T04:51:16.578Z,1.47
2019-05-05T04:54:03.905Z,1.00
2019-05-05T04:56:34.327Z,0.93
2019-05-05T04:59:04.131Z,1.13
2019-05-05T05:01:33.923Z,1.10
2019-05-05T05:04:13.816Z,1.20
2019-05-05T05:06:46.708Z,1.10
2019-05-05T05:09:15.881Z,1.10
2019-05-05T05:11:45.033Z,1.20
2019-05-05T05:14:14.474Z,1.03
2019-05-05T05:16:43.971Z,1.20
2019-05-05T05:19:13.803Z,0.97
2019-05-05T05:21:43.834Z,0.90
2019-05-05T05:24:14.682Z,1.00
2019-05-05T05:26:44.245Z,1.33
2019-05-05T05:29:15.110Z,1.30
2019-05-05T05:31:44.808Z,1.37
2019-05-05T05:34:14.903Z,0.90
2019-05-05T05:36:44.519Z,1.10
2019-05-05T05:39:30.739Z,0.97
2019-05-05T05:41:59.933Z,1.20
2019-05-05T05:44:53.997Z,0.90
2019-05-05T05:47:45.287Z,1.00
2019-05-05T05:50:34.017Z,1.03
2019-05-05T05:53:04.749Z,1.30
2019-05-05T05:55:34.438Z,1.23
2019-05-05T05:58:04.850Z,0.90
2019-05-05T06:00:34.581Z,1.10
2019-05-05T06:03:04.155Z,1.07
2019-05-05T06:05:34.277Z,1.10
2019-05-05T06:08:04.720Z,1.37
2019-05-05T06:10:34.106Z,1.07
2019-05-05T06:13:04.117Z,1.27
2019-05-05T06:15:33.958Z,1.00
2019-05-05T06:18:04.640Z,1.57
2019-05-05T06:20:34.920Z,1.20
2019-05-05T06:23:04.535Z,1.20
2019-05-05T06:25:34.390Z,0.90
2019-05-05T06:28:04.384Z,1.13
2019-05-05T06:30:33.850Z,1.20
2019-05-05T06:33:04.917Z,1.10
2019-05-05T06:35:34.192Z,1.10
2019-05-05T06:38:04.702Z,1.20
2019-05-05T06:40:53.719Z,0.87
2019-05-05T06:43:34.830Z,1.40
2019-05-05T06:46:05.842Z,1.53
2019-05-05T06:48:35.017Z,1.30
2019-05-05T06:51:04.146Z,1.73
2019-05-05T06:53:34.173Z,1.20
2019-05-05T06:56:04.113Z,1.80
2019-05-05T06:58:34.735Z,2.10
2019-05-05T07:01:03.980Z,1.80
2019-05-05T07:03:33.721Z,1.83
2019-05-05T07:06:04.251Z,1.80
2019-05-05T07:08:34.657Z,1.97
2019-05-05T07:11:04.231Z,1.83
2019-05-05T07:13:34.045Z,2.03
2019-05-05T07:16:04.859Z,1.93
2019-05-05T07:18:34.363Z,2.10
2019-05-05T07:21:03.808Z,2.30
2019-05-05T07:23:34.129Z,1.80
2019-05-05T07:26:04.197Z,2.60
2019-05-05T07:28:34.298Z,3.17
2019-05-05T07:31:04.457Z,4.00
2019-05-05T07:33:34.614Z,3.87
2019-05-05T07:36:21.543Z,4.30
2019-05-05T07:38:50.629Z,4.47
2019-05-05T07:41:19.781Z,4.47
2019-05-05T07:43:48.811Z,5.30
2019-05-05T07:46:17.965Z,5.10
2019-05-05T07:48:47.127Z,5.23
2019-05-05T07:51:16.349Z,4.57
2019-05-05T07:53:45.826Z,5.33
2019-05-05T07:56:14.897Z,4.87
2019-05-05T07:58:44.153Z,3.97
2019-05-05T08:01:14.109Z,3.30
2019-05-05T08:03:44.543Z,4.10
2019-05-05T08:06:14.646Z,4.03
2019-05-05T08:08:44.467Z,4.20
2019-05-05T08:11:14.721Z,4.63
2019-05-05T08:13:44.473Z,4.17
2019-05-05T08:16:24.248Z,4.30
2019-05-05T08:19:17.562Z,4.13
2019-05-05T08:21:46.707Z,4.50
2019-05-05T08:24:24.391Z,3.23
2019-05-05T08:27:25.009Z,5.00
2019-05-05T08:29:58.386Z,4.10
2019-05-05T08:32:35.685Z,4.00
2019-05-05T08:35:05.825Z,4.30
2019-05-05T08:37:34.837Z,4.00
2019-05-05T08:40:04.372Z,4.00
2019-05-05T08:42:33.974Z,4.33
2019-05-05T08:45:04.569Z,4.83
2019-05-05T08:47:34.566Z,3.83
2019-05-05T08:50:04.194Z,4.47
2019-05-05T08:52:34.274Z,3.80
2019-05-05T08:55:04.664Z,4.57
2019-05-05T08:57:34.200Z,4.00
2019-05-05T09:00:04.921Z,5.00
2019-05-05T09:02:36.180Z,3.80
2019-05-05T09:05:05.112Z,4.13
2019-05-05T09:07:34.281Z,4.60
2019-05-05T09:10:09.718Z,4.87
2019-05-05T09:12:38.892Z,4.10
2019-05-05T09:15:08.297Z,4.23
2019-05-05T09:17:37.400Z,4.30
2019-05-05T09:20:06.550Z,4.80
2019-05-05T09:22:35.710Z,4.73
2019-05-05T09:25:13.534Z,4.27
2019-05-05T09:27:53.595Z,3.50
2019-05-05T09:30:35.863Z,4.40
2019-05-05T09:33:05.016Z,4.10
2019-05-05T09:35:34.460Z,3.83
2019-05-05T09:38:04.055Z,3.87
2019-05-05T09:40:38.061Z,3.73
2019-05-05T09:43:07.830Z,3.97
2019-05-05T09:45:37.188Z,3.67
2019-05-05T09:48:06.456Z,3.57
2019-05-05T09:50:35.641Z,3.93
2019-05-05T09:53:04.840Z,3.60
2019-05-05T09:55:34.091Z,4.07
2019-05-05T09:58:04.476Z,3.67
2019-05-05T10:00:37.895Z,4.27
2019-05-05T10:03:07.052Z,4.23
2019-05-05T10:05:36.221Z,5.17
2019-05-05T10:08:05.393Z,5.60
2019-05-05T10:10:34.564Z,6.07
2019-05-05T10:13:04.152Z,4.53
2019-05-05T10:15:33.745Z,4.93
2019-05-05T10:18:03.493Z,4.73
2019-05-05T10:20:34.343Z,4.87
2019-05-05T10:23:03.643Z,5.60
2019-05-05T10:25:46.370Z,5.07
2019-05-05T10:28:15.485Z,5.40
2019-05-05T10:30:44.644Z,5.67
2019-05-05T10:33:14.369Z,5.03
2019-05-05T10:35:43.888Z,4.23
2019-05-05T10:38:14.338Z,4.70
2019-05-05T10:40:44.724Z,5.00
2019-05-05T10:43:14.968Z,4.60
2019-05-05T10:45:44.502Z,4.93
2019-05-05T10:48:14.512Z,4.47
2019-05-05T10:50:47.293Z,4.67
2019-05-05T10:53:16.465Z,4.63
2019-05-05T10:55:47.063Z,4.43
2019-05-05T10:58:16.409Z,4.50
2019-05-05T11:00:51.674Z,4.37
2019-05-05T11:03:23.720Z,4.17
2019-05-05T11:05:53.478Z,4.77
2019-05-05T11:08:24.049Z,3.93
2019-05-05T11:10:53.267Z,4.73
2019-05-05T11:13:23.969Z,4.30
2019-05-05T11:15:54.714Z,4.30
2019-05-05T11:18:24.110Z,4.83
2019-05-05T11:20:54.894Z,4.27
2019-05-05T11:23:26.822Z,3.93
2019-05-05T11:25:55.955Z,3.53
2019-05-05T11:28:25.141Z,4.00
2019-05-05T11:30:54.272Z,4.27
2019-05-05T11:33:43.712Z,4.07
2019-05-05T11:36:46.030Z,3.97
2019-05-05T11:39:15.496Z,4.70
2019-05-05T11:41:44.691Z,4.33
2019-05-05T11:44:15.195Z,4.17
2019-05-05T11:46:46.736Z,3.57
2019-05-05T11:49:16.288Z,4.57
2019-05-05T11:51:45.679Z,4.50
2019-05-05T11:54:17.772Z,4.30
2019-05-05T11:56:49.303Z,3.67
2019-05-05T11:59:23.550Z,3.50
2019-05-05T12:01:54.700Z,3.20
2019-05-05T12:04:24.922Z,3.33
2019-05-05T12:07:04.062Z,4.30
2019-05-05T12:09:44.278Z,3.63
2019-05-05T12:12:14.264Z,3.90
2019-05-05T12:14:43.469Z,3.50
2019-05-05T12:17:13.924Z,3.40
2019-05-05T12:19:48.261Z,3.40
2019-05-05T12:22:19.501Z,3.70
2019-05-05T12:24:53.495Z,3.80
2019-05-05T12:27:33.862Z,3.40
2019-05-05T12:30:14.834Z,2.50
2019-05-05T12:32:45.620Z,3.67
2019-05-05T12:35:15.391Z,2.60
2019-05-05T12:37:44.632Z,2.93
2019-05-05T12:40:14.475Z,2.70
2019-05-05T12:42:48.571Z,3.13
2019-05-05T12:45:21.533Z,3.70
2019-05-05T12:48:09.143Z,2.90
2019-05-05T12:50:38.288Z,3.47
2019-05-05T12:53:09.686Z,2.40
2019-05-05T12:55:41.726Z,3.20
2019-05-05T12:58:13.906Z,2.97
2019-05-05T13:00:46.722Z,2.43
2019-05-05T13:03:18.823Z,3.17
2019-05-05T13:05:48.419Z,3.20
2019-05-05T13:08:17.577Z,2.77
2019-05-05T13:10:46.750Z,3.27
2019-05-05T13:13:16.256Z,2.80
2019-05-05T13:15:45.630Z,3.00
2019-05-05T13:18:14.841Z,2.60
2019-05-05T13:20:53.695Z,3.07
2019-05-05T13:23:45.104Z,3.10
2019-05-05T13:26:36.405Z,3.20
2019-05-05T13:29:05.802Z,3.20
2019-05-05T13:31:35.022Z,2.67
2019-05-05T13:34:04.474Z,2.07
2019-05-05T13:36:33.998Z,2.70
2019-05-05T13:39:03.896Z,2.80
2019-05-05T13:41:34.026Z,1.87
2019-05-05T13:44:05.224Z,2.73
2019-05-05T13:46:35.539Z,2.20
2019-05-05T13:49:24.630Z,2.80
2019-05-05T13:51:54.139Z,1.80
2019-05-05T13:54:24.267Z,2.83
2019-05-05T13:56:53.441Z,2.50
2019-05-05T13:59:22.560Z,2.43
2019-05-05T14:01:53.862Z,2.30
2019-05-05T14:04:22.464Z,2.23
2019-05-05T14:06:51.626Z,2.73
2019-05-05T14:09:20.689Z,2.80
2019-05-05T14:11:49.941Z,2.47
2019-05-05T14:14:19.070Z,2.70
2019-05-05T14:16:48.231Z,2.43
2019-05-05T14:19:17.308Z,2.33
2019-05-05T14:21:46.401Z,2.20
2019-05-05T14:24:40.801Z,2.50
2019-05-05T14:27:09.944Z,2.53
2019-05-05T14:29:44.687Z,2.13
2019-05-05T14:32:16.039Z,1.63
2019-05-05T14:34:49.314Z,1.70
2019-05-05T14:37:49.397Z,2.13
2019-05-05T14:40:18.479Z,2.47
2019-05-05T14:42:47.781Z,2.33
2019-05-05T14:45:17.054Z,1.80
2019-05-05T14:47:46.233Z,2.10
2019-05-05T14:50:15.396Z,1.80
2019-05-05T14:52:44.574Z,2.20
2019-05-05T14:55:14.122Z,1.90
2019-05-05T14:57:44.080Z,2.03
2019-05-05T15:00:15.120Z,1.93
2019-05-05T15:02:44.362Z,1.87
2019-05-05T15:05:31.271Z,2.33
2019-05-05T15:08:07.427Z,1.97
2019-05-05T15:10:59.975Z,1.93
2019-05-05T15:13:29.130Z,1.90
2019-05-05T15:15:58.559Z,2.23
2019-05-05T15:18:27.842Z,1.47
2019-05-05T15:20:56.941Z,2.07
2019-05-05T15:23:26.221Z,2.13
2019-05-05T15:25:55.506Z,2.07
2019-05-05T15:28:24.714Z,2.00
2019-05-05T15:30:54.492Z,2.07
2019-05-05T15:33:24.321Z,1.97
2019-05-05T15:35:54.007Z,1.87
2019-05-05T15:38:24.448Z,1.67
2019-05-05T15:40:54.740Z,1.87
2019-05-05T15:43:24.397Z,1.87
2019-05-05T15:45:54.131Z,1.80
2019-05-05T15:48:23.399Z,1.70
2019-05-05T15:50:54.487Z,1.67
2019-05-05T15:53:23.497Z,2.30
2019-05-05T15:55:53.984Z,1.90
2019-05-05T15:58:23.672Z,1.83
2019-05-05T16:00:53.857Z,1.80
2019-05-05T16:03:23.041Z,1.50
2019-05-05T16:05:54.127Z,2.57
2019-05-05T16:08:22.961Z,1.40
2019-05-05T16:10:54.428Z,1.77
2019-05-05T16:13:22.750Z,1.80
2019-05-05T16:16:01.726Z,1.53
2019-05-05T16:18:41.281Z,1.43
2019-05-05T16:21:18.276Z,1.53
2019-05-05T16:23:50.476Z,1.27
2019-05-05T16:26:19.674Z,1.50
2019-05-05T16:28:48.893Z,1.27
2019-05-05T16:31:18.106Z,1.10
2019-05-05T16:33:48.738Z,1.60
2019-05-05T16:36:18.029Z,1.70
2019-05-05T16:38:47.163Z,1.60
2019-05-05T16:41:16.332Z,1.67
2019-05-05T16:43:45.516Z,1.30
2019-05-05T16:46:17.106Z,1.60
2019-05-05T16:48:45.853Z,1.70
2019-05-05T16:51:16.980Z,1.43
2019-05-05T16:53:46.099Z,1.63
2019-05-05T16:56:15.346Z,1.30
2019-05-05T16:58:45.214Z,1.80
2019-05-05T17:01:15.944Z,1.83
2019-05-05T17:03:45.803Z,1.77
2019-05-05T17:06:15.149Z,1.77
2019-05-05T17:08:44.555Z,1.60
2019-05-05T17:11:14.965Z,1.10
2019-05-05T17:14:00.649Z,1.90
2019-05-05T17:16:46.201Z,1.40
2019-05-05T17:19:37.326Z,1.23
2019-05-05T17:22:15.783Z,1.60
2019-05-05T17:24:45.089Z,1.83
2019-05-05T17:27:14.254Z,1.70
2019-05-05T17:29:44.003Z,1.20
2019-05-05T17:32:13.914Z,1.67
2019-05-05T17:34:44.926Z,1.60
2019-05-05T17:37:14.128Z,1.37
2019-05-05T17:39:50.501Z,1.60
2019-05-05T17:42:39.990Z,1.50
2019-05-05T17:45:31.148Z,2.03
2019-05-05T17:48:14.212Z,1.40
2019-05-05T17:50:58.596Z,1.63
2019-05-05T17:53:34.458Z,1.60
2019-05-05T17:56:04.436Z,1.60
2019-05-05T17:58:34.106Z,1.73
2019-05-05T18:01:03.786Z,1.83
2019-05-05T18:03:34.084Z,2.43
2019-05-05T18:06:14.372Z,3.10
2019-05-05T18:08:56.519Z,2.63
2019-05-05T18:11:35.223Z,2.13
2019-05-05T18:14:09.657Z,2.63
2019-05-05T18:16:38.983Z,3.10
2019-05-05T18:19:08.314Z,2.63
2019-05-05T18:21:37.493Z,2.33
2019-05-05T18:24:06.668Z,2.93
2019-05-05T18:26:35.841Z,2.80
2019-05-05T18:29:04.944Z,2.67
2019-05-05T18:31:34.087Z,2.80
2019-05-05T18:34:03.943Z,3.10
2019-05-05T18:36:33.475Z,3.60
2019-05-05T18:39:04.341Z,3.33
2019-05-05T18:41:55.617Z,3.60
2019-05-05T18:44:29.747Z,3.77
2019-05-05T18:47:18.374Z,3.63
2019-05-05T18:49:47.625Z,3.73
2019-05-05T18:52:16.771Z,3.93
2019-05-05T18:54:46.022Z,4.55
2019-05-05T18:57:15.172Z,4.63
2019-05-05T18:59:44.933Z,4.00
2019-05-05T19:02:34.845Z,6.23
2019-05-05T19:05:23.588Z,4.77
2019-05-05T19:08:08.252Z,5.30
2019-05-05T19:10:37.499Z,5.27
2019-05-05T19:13:06.887Z,5.80
2019-05-05T19:15:36.045Z,6.33
2019-05-05T19:18:06.614Z,5.37
2019-05-05T19:20:47.139Z,5.57
2019-05-05T19:23:16.487Z,6.10
2019-05-05T19:25:45.617Z,6.03
2019-05-05T19:28:14.770Z,7.60
2019-05-05T19:30:44.156Z,5.50
2019-05-05T19:33:15.351Z,6.27
2019-05-05T19:35:47.186Z,5.70
2019-05-05T19:38:15.765Z,7.17
2019-05-05T19:40:45.360Z,6.00
2019-05-05T19:43:14.638Z,7.33
2019-05-05T19:45:44.901Z,7.27
2019-05-05T19:48:15.075Z,7.03
2019-05-05T19:50:59.547Z,7.20
2019-05-05T19:53:28.711Z,7.37
2019-05-05T19:56:01.542Z,8.03
2019-05-05T19:58:30.757Z,8.10
2019-05-05T20:01:04.631Z,7.10
2019-05-05T20:03:35.152Z,6.70
2019-05-05T20:06:04.993Z,7.40
2019-05-05T20:08:40.904Z,7.10
2019-05-05T20:11:05.395Z,7.03
2019-05-05T20:13:34.455Z,6.50
2019-05-05T20:16:39.822Z,6.83
2019-05-05T20:19:08.987Z,7.20
2019-05-05T20:21:38.783Z,7.40
2019-05-05T20:24:10.045Z,6.33
2019-05-05T20:26:39.146Z,6.57
2019-05-05T20:29:14.003Z,7.13
2019-05-05T20:31:39.677Z,6.83
2019-05-05T20:34:18.444Z,5.73
2019-05-05T20:37:15.647Z,5.93
2019-05-05T20:39:44.824Z,5.77
2019-05-05T20:42:14.906Z,5.20
2019-05-05T20:44:44.854Z,6.07
2019-05-05T20:47:14.014Z,5.37
2019-05-05T20:49:44.441Z,6.37
2019-05-05T20:52:14.143Z,6.90
2019-05-05T20:54:45.668Z,7.43
2019-05-05T20:57:15.027Z,7.10
2019-05-05T20:59:44.501Z,7.13
2019-05-05T21:02:14.213Z,6.80
2019-05-05T21:04:47.021Z,7.20
2019-05-05T21:07:16.858Z,6.77
2019-05-05T21:09:45.999Z,7.33
2019-05-05T21:12:15.200Z,6.87
2019-05-05T21:14:44.787Z,7.07
2019-05-05T21:17:14.207Z,6.27
2019-05-05T21:19:44.366Z,5.83
2019-05-05T21:22:31.142Z,6.80
2019-05-05T21:25:00.244Z,6.53
2019-05-05T21:27:30.788Z,6.53
2019-05-05T21:29:59.951Z,6.67
2019-05-05T21:32:29.140Z,6.30
2019-05-05T21:34:58.278Z,6.23
2019-05-05T21:37:27.469Z,5.47
2019-05-05T21:39:56.652Z,5.50
2019-05-05T21:42:25.689Z,6.17
2019-05-05T21:44:54.805Z,5.10
2019-05-05T21:47:24.115Z,5.90
2019-05-05T21:49:54.324Z,5.23
2019-05-05T21:52:35.384Z,5.93
2019-05-05T21:55:34.329Z,5.17
2019-05-05T21:58:28.598Z,5.40
2019-05-05T22:01:14.982Z,4.93
2019-05-05T22:03:44.418Z,5.40
2019-05-05T22:06:14.617Z,5.87
2019-05-05T22:08:44.097Z,6.03
2019-05-05T22:11:14.708Z,5.47
2019-05-05T22:13:44.379Z,4.27
2019-05-05T22:16:14.160Z,4.40
2019-05-05T22:18:44.657Z,4.23
2019-05-05T22:21:25.868Z,4.97
2019-05-05T22:24:15.610Z,4.33
2019-05-05T22:26:44.541Z,4.20
2019-05-05T22:29:16.794Z,3.63
2019-05-05T22:31:44.946Z,3.97
2019-05-05T22:34:14.638Z,3.97
2019-05-05T22:36:44.929Z,3.73
2019-05-05T22:39:16.824Z,4.60
2019-05-05T22:41:45.307Z,3.73
2019-05-05T22:44:14.350Z,4.33
2019-05-05T22:46:43.568Z,3.80
2019-05-05T22:49:14.718Z,3.90
2019-05-05T22:51:44.728Z,3.70
2019-05-05T22:54:33.731Z,3.50
2019-05-05T22:57:04.651Z,4.20
2019-05-05T22:59:34.065Z,3.83
2019-05-05T23:02:03.954Z,3.80
2019-05-05T23:04:43.833Z,3.97
2019-05-05T23:07:25.866Z,3.20
2019-05-05T23:09:55.013Z,3.53
2019-05-05T23:12:24.458Z,3.43
2019-05-05T23:14:54.526Z,2.70
2019-05-05T23:17:39.601Z,3.13
2019-05-05T23:20:27.705Z,3.30
2019-05-05T23:23:10.215Z,3.20
2019-05-05T23:25:45.587Z,2.97
2019-05-05T23:28:14.686Z,2.53
2019-05-05T23:30:44.795Z,3.03
2019-05-05T23:33:14.384Z,2.37
2019-05-05T23:35:43.783Z,2.70
2019-05-05T23:38:14.373Z,2.73
2019-05-05T23:40:43.630Z,2.27
2019-05-05T23:43:13.945Z,2.90
2019-05-05T23:45:44.844Z,2.70
2019-05-05T23:48:14.433Z,2.47
2019-05-05T23:50:44.565Z,2.80
2019-05-05T23:53:13.886Z,2.77
2019-05-05T23:55:44.092Z,2.27
2019-05-05T23:58:14.420Z,3.30
